Terminal Aerodrome Forecast
Issued by NWS

Home | Current Version | Previous Version | Text Only | Print | Product List | Glossary On
Versions: 1 2 3 4 5 6 7 8 9 10 11 12 13 14 15 16 17 18
910
FTPA31 PHFO 270535
TAFHJR
TAF
PHJR 270535Z 2706/2806 06005KT P6SM SCT045
     FM272000 08010G15KT P6SM FEW030 SCT045
     FM280400 06005KT P6SM SCT045=

USA.gov is the U.S. government's official web portal to all federal, state and local government web resources and services.